Terminal Aerodrome Forecast
Issued by NWS

Home | Current Version | Previous Version | Text Only | Print | Product List | Glossary On
Versions: 1 2 3 4 5 6 7 8 9 10 11 12 13 14 15 16 17 18 19 20 21 22 23 24 25 26 27 28 29 30 31
000
FTUS45 KBOU 211736
TAFBJC
TAF
KBJC 211736Z 2118/2218 24007KT P6SM FEW120 BKN200
     FM211900 12007KT P6SM SCT120 BKN200
      TEMPO 2122/2202 VRB15G28KT BKN120
     FM220200 29007KT P6SM FEW120 BKN200
     FM220500 25005KT P6SM FEW140 SCT200
     FM221200 29005KT P6SM FEW140 SCT200
     FM221400 36008KT P6SM FEW140 SCT200=

USA.gov is the U.S. government's official web portal to all federal, state and local government web resources and services.